createdAt,value
2022-10-08T00:00:11.360Z,87.92
2022-10-08T00:02:28.239Z,86.74
2022-10-08T00:04:45.577Z,86.37
2022-10-08T00:07:02.427Z,87.54
2022-10-08T00:09:20.608Z,85.87
2022-10-08T00:11:37.634Z,86.49
2022-10-08T00:13:55.195Z,87.07
2022-10-08T00:16:12.196Z,86.84
2022-10-08T00:18:30.803Z,87.50
2022-10-08T00:20:47.721Z,86.12
2022-10-08T00:23:05.725Z,87.78
2022-10-08T00:25:22.947Z,87.23
2022-10-08T00:27:41.264Z,88.33
2022-10-08T00:30:03.917Z,86.80
2022-10-08T00:32:21.914Z,86.98
2022-10-08T00:34:39.181Z,87.89
2022-10-08T00:36:56.206Z,86.98
2022-10-08T00:39:13.191Z,86.28
2022-10-08T00:41:30.460Z,87.84
2022-10-08T00:43:47.707Z,87.01
2022-10-08T00:46:04.806Z,86.74
2022-10-08T00:48:22.073Z,86.75
2022-10-08T00:50:40.338Z,86.73
2022-10-08T00:52:57.352Z,87.49
2022-10-08T00:55:14.620Z,86.41
2022-10-08T00:57:32.169Z,86.34
2022-10-08T00:59:49.162Z,87.23
2022-10-08T01:02:06.426Z,86.72
2022-10-08T01:04:25.239Z,85.80
2022-10-08T01:06:42.459Z,87.22
2022-10-08T01:09:02.087Z,87.33
2022-10-08T01:11:19.069Z,87.02
2022-10-08T01:13:36.365Z,86.39
2022-10-08T01:15:53.481Z,86.79
2022-10-08T01:18:10.730Z,86.97
2022-10-08T01:20:27.706Z,85.75
2022-10-08T01:22:45.009Z,86.38
2022-10-08T01:25:03.445Z,86.84
2022-10-08T01:27:21.477Z,86.49
2022-10-08T01:29:38.461Z,86.24
2022-10-08T01:31:55.507Z,85.72
2022-10-08T01:34:15.289Z,86.16
2022-10-08T01:36:32.135Z,86.41
2022-10-08T01:38:50.055Z,86.38
2022-10-08T01:41:07.019Z,86.42
2022-10-08T01:43:24.469Z,86.36
2022-10-08T01:45:41.528Z,86.88
2022-10-08T01:48:01.590Z,86.75
2022-10-08T01:50:18.459Z,86.40
2022-10-08T01:52:35.385Z,86.63
2022-10-08T01:54:52.233Z,86.07
2022-10-08T01:57:09.158Z,85.78
2022-10-08T01:59:26.037Z,85.92
2022-10-08T02:01:43.620Z,85.90
2022-10-08T02:04:01.618Z,85.76
2022-10-08T02:06:18.885Z,86.18
2022-10-08T02:08:36.112Z,86.09
2022-10-08T02:10:53.378Z,85.93
2022-10-08T02:13:10.611Z,86.49
2022-10-08T02:15:27.798Z,87.29
2022-10-08T02:17:45.857Z,87.40
2022-10-08T02:20:03.094Z,87.16
2022-10-08T02:22:19.956Z,87.30
2022-10-08T02:24:36.816Z,87.12
2022-10-08T02:26:53.826Z,87.10
2022-10-08T02:29:10.799Z,86.96
2022-10-08T02:31:28.155Z,87.19
2022-10-08T02:33:49.564Z,86.80
2022-10-08T02:36:06.578Z,86.91
2022-10-08T02:38:23.459Z,86.97
2022-10-08T02:40:40.443Z,86.95
2022-10-08T02:42:58.680Z,86.89
2022-10-08T02:45:15.650Z,86.86
2022-10-08T02:47:32.506Z,87.61
2022-10-08T02:49:49.488Z,87.72
2022-10-08T02:52:06.521Z,87.38
2022-10-08T02:54:24.073Z,87.23
2022-10-08T02:56:43.635Z,87.23
2022-10-08T02:59:00.943Z,87.09
2022-10-08T03:01:19.317Z,86.75
2022-10-08T03:03:36.552Z,86.71
2022-10-08T03:05:55.973Z,86.69
2022-10-08T03:08:12.988Z,86.32
2022-10-08T03:10:30.954Z,86.55
2022-10-08T03:12:48.404Z,86.27
2022-10-08T03:15:14.266Z,86.61
2022-10-08T03:17:31.825Z,86.22
2022-10-08T03:19:50.598Z,86.38
2022-10-08T03:22:08.143Z,86.32
2022-10-08T03:24:25.168Z,86.56
2022-10-08T03:26:42.204Z,86.35
2022-10-08T03:28:59.112Z,86.43
2022-10-08T03:31:17.519Z,86.22
2022-10-08T03:33:34.522Z,86.54
2022-10-08T03:35:52.512Z,86.21
2022-10-08T03:38:09.796Z,86.37
2022-10-08T03:40:26.802Z,86.22
2022-10-08T03:42:43.943Z,86.22
2022-10-08T03:45:02.040Z,86.00
2022-10-08T03:47:19.294Z,85.93
2022-10-08T03:49:36.173Z,85.67
2022-10-08T03:51:53.463Z,85.64
2022-10-08T03:54:11.411Z,86.20
2022-10-08T03:56:28.363Z,86.01
2022-10-08T03:58:45.330Z,86.29
2022-10-08T04:01:02.634Z,86.54
2022-10-08T04:03:19.664Z,86.71
2022-10-08T04:05:36.671Z,86.31
2022-10-08T04:07:55.655Z,86.26
2022-10-08T04:10:12.921Z,86.32
2022-10-08T04:12:30.352Z,86.34
2022-10-08T04:14:48.616Z,86.29
2022-10-08T04:17:05.575Z,86.20
2022-10-08T04:19:22.790Z,86.31
2022-10-08T04:21:40.222Z,86.42
2022-10-08T04:23:57.183Z,86.64
2022-10-08T04:26:15.168Z,86.97
2022-10-08T04:28:37.539Z,86.58
2022-10-08T04:30:55.628Z,86.11
2022-10-08T04:33:12.704Z,86.89
2022-10-08T04:35:29.955Z,85.83
2022-10-08T04:37:47.241Z,86.24
2022-10-08T04:40:04.212Z,86.77
2022-10-08T04:42:22.433Z,86.36
2022-10-08T04:44:39.897Z,86.08
2022-10-08T04:46:57.148Z,86.19
2022-10-08T04:49:14.190Z,86.64
2022-10-08T04:51:31.095Z,86.73
2022-10-08T04:53:48.360Z,87.03
2022-10-08T04:56:05.280Z,86.36
2022-10-08T04:58:22.317Z,86.82
2022-10-08T05:00:40.340Z,86.40
2022-10-08T05:02:57.389Z,86.76
2022-10-08T05:05:16.314Z,87.19
2022-10-08T05:07:33.441Z,87.01
2022-10-08T05:09:50.477Z,87.10
2022-10-08T05:12:07.447Z,86.96
2022-10-08T05:14:24.461Z,86.40
2022-10-08T05:16:42.534Z,85.82
2022-10-08T05:18:59.775Z,86.30
2022-10-08T05:21:17.054Z,86.41
2022-10-08T05:23:33.892Z,86.20
2022-10-08T05:25:51.118Z,86.20
2022-10-08T05:28:08.061Z,86.08
2022-10-08T05:30:26.130Z,86.34
2022-10-08T05:32:43.149Z,86.14
2022-10-08T05:35:00.160Z,85.90
2022-10-08T05:37:17.230Z,86.93
2022-10-08T05:39:34.430Z,86.31
2022-10-08T05:41:52.892Z,86.05
2022-10-08T05:44:10.135Z,86.64
2022-10-08T05:46:27.277Z,86.26
2022-10-08T05:48:45.325Z,86.35
2022-10-08T05:51:02.238Z,86.88
2022-10-08T05:53:19.240Z,86.33
2022-10-08T05:55:36.272Z,86.14
2022-10-08T05:58:01.627Z,85.95
2022-10-08T06:00:18.803Z,86.04
2022-10-08T06:02:36.427Z,86.18
2022-10-08T06:04:53.571Z,87.04
2022-10-08T06:07:10.779Z,86.00
2022-10-08T06:09:29.070Z,87.24
2022-10-08T06:11:46.039Z,86.20
2022-10-08T06:14:04.000Z,86.07
2022-10-08T06:16:21.148Z,86.71
2022-10-08T06:18:38.090Z,86.57
2022-10-08T06:20:55.379Z,86.20
2022-10-08T06:23:12.276Z,86.09
2022-10-08T06:25:30.512Z,86.94
2022-10-08T06:27:47.530Z,86.01
2022-10-08T06:30:04.525Z,85.90
2022-10-08T06:32:21.357Z,86.92
2022-10-08T06:34:39.519Z,86.53
2022-10-08T06:36:56.337Z,86.48
2022-10-08T06:39:13.577Z,87.30
2022-10-08T06:41:30.577Z,86.27
2022-10-08T06:43:50.272Z,87.18
2022-10-08T06:46:08.501Z,87.06
2022-10-08T06:48:26.458Z,86.47
2022-10-08T06:50:44.355Z,87.28
2022-10-08T06:53:01.625Z,86.81
2022-10-08T06:55:18.552Z,86.87
2022-10-08T06:57:37.592Z,86.78
2022-10-08T06:59:54.898Z,87.67
2022-10-08T07:02:12.047Z,87.67
2022-10-08T07:04:29.468Z,87.30
2022-10-08T07:06:46.446Z,87.49
2022-10-08T07:09:03.485Z,87.43
2022-10-08T07:11:23.271Z,87.30
2022-10-08T07:13:41.616Z,87.32
2022-10-08T07:15:58.608Z,87.60
2022-10-08T07:18:15.834Z,87.06
2022-10-08T07:20:33.651Z,86.95
2022-10-08T07:22:50.855Z,86.35
2022-10-08T07:25:07.730Z,86.20
2022-10-08T07:27:24.696Z,86.65
2022-10-08T07:29:41.707Z,86.12
2022-10-08T07:31:58.664Z,86.07
2022-10-08T07:34:15.685Z,86.16
2022-10-08T07:36:36.725Z,86.63
2022-10-08T07:38:54.960Z,86.44
2022-10-08T07:41:12.169Z,86.24
2022-10-08T07:43:30.177Z,86.86
2022-10-08T07:45:47.179Z,87.21
2022-10-08T07:48:06.760Z,86.66
2022-10-08T07:50:23.838Z,87.36
2022-10-08T07:52:41.842Z,87.08
2022-10-08T07:54:59.056Z,86.96
2022-10-08T07:57:16.016Z,86.20
2022-10-08T07:59:35.861Z,86.69
2022-10-08T08:01:52.974Z,86.06
2022-10-08T08:04:11.210Z,84.53
2022-10-08T08:06:28.246Z,85.27
2022-10-08T08:08:45.808Z,85.50
2022-10-08T08:11:02.778Z,84.92
2022-10-08T08:13:19.794Z,83.37
2022-10-08T08:15:38.139Z,83.59
2022-10-08T08:17:55.634Z,83.73
2022-10-08T08:20:12.864Z,81.77
2022-10-08T08:22:30.138Z,81.19
2022-10-08T08:24:47.190Z,80.29
2022-10-08T08:27:04.465Z,80.99
2022-10-08T08:29:21.508Z,81.61
2022-10-08T08:31:38.533Z,80.65
2022-10-08T08:33:58.811Z,80.91
2022-10-08T08:36:16.011Z,80.88
2022-10-08T08:38:33.080Z,81.64
2022-10-08T08:40:51.103Z,81.95
2022-10-08T08:43:08.140Z,80.53
2022-10-08T08:45:45.215Z,81.40
2022-10-08T08:48:02.726Z,81.87
2022-10-08T08:50:19.960Z,81.73
2022-10-08T08:52:37.273Z,81.56
2022-10-08T08:54:55.515Z,80.97
2022-10-08T08:57:12.551Z,81.22
2022-10-08T08:59:30.542Z,82.09
2022-10-08T09:01:48.451Z,82.48
2022-10-08T09:04:05.725Z,82.48
2022-10-08T09:06:22.682Z,82.20
2022-10-08T09:08:39.720Z,83.10
2022-10-08T09:10:59.714Z,82.39
2022-10-08T09:13:16.667Z,81.85
2022-10-08T09:15:34.894Z,82.21
2022-10-08T09:17:52.177Z,83.90
2022-10-08T09:20:10.107Z,84.59
2022-10-08T09:22:28.142Z,84.36
2022-10-08T09:24:46.247Z,81.25
2022-10-08T09:27:03.563Z,83.70
2022-10-08T09:29:20.785Z,84.23
2022-10-08T09:31:38.134Z,82.09
2022-10-08T09:33:56.226Z,79.72
2022-10-08T09:36:13.155Z,79.81
2022-10-08T09:38:30.282Z,79.63
2022-10-08T09:40:48.951Z,77.98
2022-10-08T09:43:05.867Z,78.21
2022-10-08T09:45:22.930Z,79.39
2022-10-08T09:47:39.883Z,79.05
2022-10-08T09:49:56.898Z,77.81
2022-10-08T09:52:17.164Z,79.30
2022-10-08T09:54:34.497Z,77.24
2022-10-08T09:56:51.481Z,76.10
2022-10-08T09:59:08.421Z,76.95
2022-10-08T10:01:25.470Z,75.34
2022-10-08T10:03:42.554Z,76.12
2022-10-08T10:05:59.874Z,75.84
2022-10-08T10:08:16.840Z,74.24
2022-10-08T10:10:33.833Z,73.52
2022-10-08T10:12:50.914Z,73.70
2022-10-08T10:15:08.163Z,74.45
2022-10-08T10:17:25.221Z,72.45
2022-10-08T10:19:43.598Z,71.41
2022-10-08T10:22:01.682Z,70.98
2022-10-08T10:24:18.550Z,71.19
2022-10-08T10:26:35.690Z,71.50
2022-10-08T10:28:55.301Z,71.85
2022-10-08T10:31:12.863Z,71.09
2022-10-08T10:33:30.019Z,71.53
2022-10-08T10:35:47.300Z,70.06
2022-10-08T10:38:04.330Z,71.87
2022-10-08T10:40:21.600Z,71.36
2022-10-08T10:42:38.941Z,71.47
2022-10-08T10:44:56.281Z,70.02
2022-10-08T10:47:14.216Z,71.12
2022-10-08T10:49:31.246Z,70.71
2022-10-08T10:51:48.507Z,70.58
2022-10-08T10:54:05.541Z,70.14
2022-10-08T10:56:22.612Z,69.96
2022-10-08T10:58:39.547Z,69.78
2022-10-08T11:00:57.913Z,69.35
2022-10-08T11:03:14.998Z,68.34
2022-10-08T11:05:32.118Z,67.60
2022-10-08T11:07:50.122Z,68.39
2022-10-08T11:10:07.325Z,67.73
2022-10-08T11:12:25.539Z,67.43
2022-10-08T11:14:43.426Z,67.25
2022-10-08T11:17:00.361Z,67.93
2022-10-08T11:19:17.222Z,66.95
2022-10-08T11:21:34.422Z,67.78
2022-10-08T11:23:52.438Z,67.88
2022-10-08T11:26:21.759Z,67.06
2022-10-08T11:28:39.246Z,66.79
2022-10-08T11:30:56.617Z,66.55
2022-10-08T11:33:13.605Z,65.21
2022-10-08T11:35:30.489Z,63.91
2022-10-08T11:37:47.726Z,64.33
2022-10-08T11:40:04.953Z,63.52
2022-10-08T11:42:21.993Z,63.06
2022-10-08T11:44:39.072Z,61.55
2022-10-08T11:46:57.313Z,61.03
2022-10-08T11:49:14.248Z,59.22
2022-10-08T11:51:31.234Z,56.42
2022-10-08T11:53:48.270Z,56.26
2022-10-08T11:56:05.312Z,56.16
2022-10-08T11:58:22.399Z,56.33
2022-10-08T12:00:39.397Z,57.50
2022-10-08T12:02:56.777Z,57.69
2022-10-08T12:05:14.041Z,55.25
2022-10-08T12:07:31.051Z,56.83
2022-10-08T12:09:48.000Z,56.49
2022-10-08T12:12:05.003Z,56.19
2022-10-08T12:14:23.000Z,55.43
2022-10-08T12:16:40.293Z,54.29
2022-10-08T12:18:57.309Z,56.76
2022-10-08T12:21:15.603Z,55.08
2022-10-08T12:23:32.513Z,56.18
2022-10-08T12:25:49.373Z,55.34
2022-10-08T12:28:06.694Z,53.23
2022-10-08T12:30:24.735Z,54.67
2022-10-08T12:32:41.733Z,54.31
2022-10-08T12:34:58.757Z,52.92
2022-10-08T12:37:16.675Z,53.61
2022-10-08T12:39:35.067Z,52.35
2022-10-08T12:41:57.223Z,52.64
2022-10-08T12:44:15.026Z,52.34
2022-10-08T12:46:32.346Z,51.53
2022-10-08T12:48:49.203Z,51.10
2022-10-08T12:51:06.222Z,50.09
2022-10-08T12:53:23.303Z,52.34
2022-10-08T12:55:40.294Z,51.00
2022-10-08T12:57:57.205Z,52.27
2022-10-08T13:00:14.527Z,51.39
2022-10-08T13:02:31.425Z,52.41
2022-10-08T13:04:48.312Z,49.31
2022-10-08T13:07:06.615Z,49.84
2022-10-08T13:09:23.825Z,48.82
2022-10-08T13:11:40.744Z,49.78
2022-10-08T13:13:57.816Z,49.83
2022-10-08T13:16:15.841Z,48.67
2022-10-08T13:18:32.902Z,46.94
2022-10-08T13:20:50.195Z,48.41
2022-10-08T13:23:10.424Z,46.81
2022-10-08T13:25:27.489Z,47.32
2022-10-08T13:27:47.268Z,47.63
2022-10-08T13:30:04.491Z,48.25
2022-10-08T13:32:21.403Z,49.44
2022-10-08T13:34:38.678Z,48.80
2022-10-08T13:36:55.699Z,48.80
2022-10-08T13:39:12.680Z,48.47
2022-10-08T13:41:29.699Z,47.31
2022-10-08T13:43:46.993Z,47.63
2022-10-08T13:46:05.284Z,45.70
2022-10-08T13:48:22.528Z,47.34
2022-10-08T13:50:39.460Z,47.09
2022-10-08T13:52:56.432Z,47.02
2022-10-08T13:55:14.764Z,47.66
2022-10-08T13:57:31.777Z,47.55
2022-10-08T13:59:48.664Z,46.77
2022-10-08T14:02:05.812Z,47.00
2022-10-08T14:04:22.808Z,47.79
2022-10-08T14:06:39.769Z,46.26
2022-10-08T14:08:59.106Z,45.59
2022-10-08T14:11:16.606Z,45.44
2022-10-08T14:13:34.187Z,46.33
2022-10-08T14:15:51.617Z,45.63
2022-10-08T14:18:08.586Z,48.14
2022-10-08T14:20:25.555Z,46.72
2022-10-08T14:22:42.616Z,47.25
2022-10-08T14:25:00.481Z,48.66
2022-10-08T14:27:17.472Z,47.16
2022-10-08T14:29:35.455Z,46.41
2022-10-08T14:31:52.797Z,48.08
2022-10-08T14:34:10.277Z,46.05
2022-10-08T14:36:27.254Z,46.00
2022-10-08T14:38:45.807Z,46.52
2022-10-08T14:41:03.085Z,45.83
2022-10-08T14:43:20.353Z,45.94
2022-10-08T14:45:38.351Z,45.40
2022-10-08T14:47:55.629Z,46.34
2022-10-08T14:50:12.555Z,45.36
2022-10-08T14:52:29.481Z,48.03
2022-10-08T14:54:46.413Z,46.99
2022-10-08T14:57:03.307Z,46.89
2022-10-08T14:59:20.177Z,47.14
2022-10-08T15:01:37.145Z,47.29
2022-10-08T15:03:54.085Z,47.70
2022-10-08T15:06:10.955Z,46.03
2022-10-08T15:08:27.814Z,47.40
2022-10-08T15:10:44.677Z,46.01
2022-10-08T15:13:01.504Z,47.87
2022-10-08T15:15:18.372Z,44.39
2022-10-08T15:17:35.250Z,45.33
2022-10-08T15:19:52.255Z,44.49
2022-10-08T15:22:09.103Z,44.62
2022-10-08T15:24:25.990Z,43.63
2022-10-08T15:26:42.872Z,43.10
2022-10-08T15:28:59.747Z,43.12
2022-10-08T15:31:16.685Z,40.68
2022-10-08T15:33:33.732Z,41.79
2022-10-08T15:35:50.759Z,42.18
2022-10-08T15:38:07.616Z,41.48
2022-10-08T15:40:24.507Z,41.63
2022-10-08T15:42:41.588Z,43.75
2022-10-08T15:44:58.545Z,46.48
2022-10-08T15:47:16.378Z,49.83
2022-10-08T15:49:33.277Z,50.98
2022-10-08T15:51:50.146Z,54.43
2022-10-08T15:54:07.025Z,55.40
2022-10-08T15:56:23.871Z,58.65
2022-10-08T15:58:55.758Z,60.30
2022-10-08T16:01:12.834Z,60.93
2022-10-08T16:03:29.707Z,62.62
2022-10-08T16:05:46.578Z,62.98
2022-10-08T16:08:03.493Z,64.13
2022-10-08T16:10:20.321Z,63.62
2022-10-08T16:12:37.194Z,64.93
2022-10-08T16:14:54.035Z,66.40
2022-10-08T16:17:10.988Z,67.17
2022-10-08T16:19:27.960Z,68.08
2022-10-08T16:21:44.790Z,68.96
2022-10-08T16:24:01.680Z,69.33
2022-10-08T16:26:18.589Z,70.54
2022-10-08T16:28:35.704Z,71.06
2022-10-08T16:30:52.633Z,70.19
2022-10-08T16:33:09.556Z,71.95
2022-10-08T16:35:26.488Z,71.84
2022-10-08T16:37:43.625Z,72.38
2022-10-08T16:40:00.615Z,73.38
2022-10-08T16:42:17.565Z,73.12
2022-10-08T16:44:34.468Z,72.32
2022-10-08T16:46:51.391Z,73.97
2022-10-08T16:49:08.326Z,73.64
2022-10-08T16:51:25.206Z,73.36
2022-10-08T16:53:42.098Z,74.65
2022-10-08T16:55:59.191Z,74.25
2022-10-08T16:58:16.023Z,74.53
2022-10-08T17:00:32.903Z,76.33
2022-10-08T17:02:50.212Z,75.80
2022-10-08T17:05:07.477Z,75.66
2022-10-08T17:07:24.561Z,76.00
2022-10-08T17:09:41.430Z,76.39
2022-10-08T17:11:58.310Z,76.35
2022-10-08T17:14:15.161Z,76.56
2022-10-08T17:16:32.330Z,76.91
2022-10-08T17:18:49.221Z,76.74
2022-10-08T17:21:06.148Z,77.27
2022-10-08T17:23:23.025Z,77.41
2022-10-08T17:25:39.922Z,77.19
2022-10-08T17:27:56.781Z,76.99
2022-10-08T17:30:13.673Z,77.35
2022-10-08T17:32:30.583Z,77.59
2022-10-08T17:34:47.514Z,77.73
2022-10-08T17:37:04.388Z,77.86
2022-10-08T17:39:21.276Z,78.31
2022-10-08T17:41:38.084Z,78.54
2022-10-08T17:43:54.973Z,77.55
2022-10-08T17:46:11.924Z,78.60
2022-10-08T17:48:28.826Z,78.68
2022-10-08T17:50:45.764Z,78.76
2022-10-08T17:53:02.644Z,78.67
2022-10-08T17:55:19.661Z,78.98
2022-10-08T17:57:36.603Z,79.55
2022-10-08T17:59:53.508Z,79.80
2022-10-08T18:02:10.489Z,80.11
2022-10-08T18:04:27.441Z,79.69
2022-10-08T18:06:44.339Z,80.47
2022-10-08T18:09:01.204Z,79.65
2022-10-08T18:11:18.100Z,79.58
2022-10-08T18:13:35.047Z,80.89
2022-10-08T18:15:51.909Z,80.02
2022-10-08T18:18:09.307Z,80.88
2022-10-08T18:20:26.173Z,81.27
2022-10-08T18:22:43.268Z,80.14
2022-10-08T18:25:00.244Z,80.20
2022-10-08T18:27:17.169Z,79.98
2022-10-08T18:29:34.093Z,80.68
2022-10-08T18:31:51.003Z,80.18
2022-10-08T18:34:07.864Z,81.58
2022-10-08T18:36:24.754Z,81.52
2022-10-08T18:38:41.625Z,81.57
2022-10-08T18:40:58.777Z,81.95
2022-10-08T18:43:15.634Z,80.43
2022-10-08T18:45:32.498Z,80.60
2022-10-08T18:47:49.416Z,82.11
2022-10-08T18:50:06.285Z,82.23
2022-10-08T18:52:23.183Z,81.39
2022-10-08T18:54:40.038Z,81.78
2022-10-08T18:56:57.107Z,82.41
2022-10-08T18:59:14.036Z,81.93
2022-10-08T19:01:31.125Z,82.28
2022-10-08T19:03:48.261Z,82.42
2022-10-08T19:06:05.145Z,81.84
2022-10-08T19:08:22.069Z,82.01
2022-10-08T19:10:39.023Z,82.75
2022-10-08T19:12:55.886Z,83.16
2022-10-08T19:15:12.790Z,83.03
2022-10-08T19:17:29.613Z,81.80
2022-10-08T19:19:46.529Z,81.84
2022-10-08T19:22:03.368Z,81.97
2022-10-08T19:24:20.267Z,82.69
2022-10-08T19:26:37.132Z,83.45
2022-10-08T19:28:54.037Z,83.14
2022-10-08T19:31:10.869Z,82.05
2022-10-08T19:33:27.787Z,82.14
2022-10-08T19:35:44.725Z,83.00
2022-10-08T19:38:01.569Z,82.49
2022-10-08T19:40:18.618Z,82.89
2022-10-08T19:42:35.501Z,82.80
2022-10-08T19:44:52.386Z,83.17
2022-10-08T19:47:09.212Z,81.94
2022-10-08T19:49:26.041Z,82.44
2022-10-08T19:51:42.907Z,82.93
2022-10-08T19:53:59.791Z,82.61
2022-10-08T19:56:16.689Z,82.56
2022-10-08T19:58:33.517Z,82.43
2022-10-08T20:00:50.368Z,82.64
2022-10-08T20:03:07.451Z,83.72
2022-10-08T20:05:24.347Z,83.12
2022-10-08T20:07:41.211Z,83.10
2022-10-08T20:09:58.113Z,83.47
2022-10-08T20:12:14.981Z,82.76
2022-10-08T20:14:31.886Z,83.29
2022-10-08T20:16:48.731Z,83.59
2022-10-08T20:19:05.633Z,83.19
2022-10-08T20:21:22.507Z,83.52
2022-10-08T20:23:40.443Z,83.98
2022-10-08T20:25:57.322Z,83.59
2022-10-08T20:28:14.243Z,83.88
2022-10-08T20:30:31.317Z,84.09
2022-10-08T20:32:48.386Z,83.75
2022-10-08T20:35:05.463Z,83.67
2022-10-08T20:37:22.323Z,83.35
2022-10-08T20:39:39.240Z,83.37
2022-10-08T20:41:56.086Z,83.13
2022-10-08T20:44:13.013Z,83.50
2022-10-08T20:46:29.899Z,83.71
2022-10-08T20:48:46.830Z,83.73
2022-10-08T20:51:03.669Z,84.24
2022-10-08T20:53:20.522Z,84.17
2022-10-08T20:55:37.399Z,83.47
2022-10-08T20:57:54.198Z,83.94
2022-10-08T21:00:11.116Z,83.88
2022-10-08T21:02:28.023Z,83.68
2022-10-08T21:04:45.022Z,83.29
2022-10-08T21:07:01.904Z,83.52
2022-10-08T21:09:18.881Z,83.55
2022-10-08T21:11:35.766Z,83.58
2022-10-08T21:13:52.882Z,83.25
2022-10-08T21:16:09.915Z,83.15
2022-10-08T21:18:26.892Z,83.19
2022-10-08T21:20:43.983Z,83.80
2022-10-08T21:23:00.956Z,83.90
2022-10-08T21:25:20.538Z,83.77
2022-10-08T21:27:37.550Z,83.78
2022-10-08T21:29:54.448Z,83.74
2022-10-08T21:32:14.130Z,83.58
2022-10-08T21:34:31.036Z,83.65
2022-10-08T21:36:47.961Z,83.40
2022-10-08T21:39:05.111Z,83.34
2022-10-08T21:41:24.329Z,82.92
2022-10-08T21:43:41.272Z,83.50
2022-10-08T21:45:58.534Z,83.07
2022-10-08T21:48:15.610Z,83.01
2022-10-08T21:50:35.968Z,83.37
2022-10-08T21:52:53.151Z,83.27
2022-10-08T21:55:10.202Z,83.03
2022-10-08T21:57:27.164Z,82.66
2022-10-08T21:59:44.190Z,82.83
2022-10-08T22:02:01.152Z,83.62
2022-10-08T22:04:18.255Z,83.20
2022-10-08T22:06:35.235Z,83.09
2022-10-08T22:08:52.155Z,83.13
2022-10-08T22:11:09.019Z,83.58
2022-10-08T22:13:25.893Z,84.13
2022-10-08T22:15:42.800Z,84.03
2022-10-08T22:17:59.714Z,84.08
2022-10-08T22:20:16.645Z,83.97
2022-10-08T22:22:33.561Z,83.40
2022-10-08T22:24:50.482Z,84.12
2022-10-08T22:27:07.410Z,83.25
2022-10-08T22:29:25.423Z,84.29
2022-10-08T22:31:42.422Z,83.73
2022-10-08T22:33:59.420Z,84.50
2022-10-08T22:36:16.321Z,84.72
2022-10-08T22:38:33.217Z,83.98
2022-10-08T22:40:50.126Z,84.89
2022-10-08T22:43:07.101Z,84.93
2022-10-08T22:45:24.111Z,84.63
2022-10-08T22:47:41.353Z,85.00
2022-10-08T22:49:58.247Z,84.48
2022-10-08T22:52:15.213Z,84.26
2022-10-08T22:54:32.077Z,84.45
2022-10-08T22:56:49.084Z,83.62
2022-10-08T22:59:05.969Z,83.30
2022-10-08T23:01:22.878Z,84.57
2022-10-08T23:03:39.922Z,84.28
2022-10-08T23:05:56.851Z,84.89
2022-10-08T23:08:13.769Z,83.66
2022-10-08T23:10:30.682Z,83.81
2022-10-08T23:12:47.824Z,84.25
2022-10-08T23:15:04.998Z,84.76
2022-10-08T23:17:21.995Z,84.42
2022-10-08T23:19:38.947Z,83.76
2022-10-08T23:21:55.907Z,84.51
2022-10-08T23:24:12.856Z,84.55
2022-10-08T23:26:29.798Z,84.37
2022-10-08T23:28:46.714Z,83.87
2022-10-08T23:31:03.617Z,83.76
2022-10-08T23:33:20.538Z,83.67
2022-10-08T23:35:37.627Z,84.23
2022-10-08T23:37:54.494Z,84.03
2022-10-08T23:40:11.413Z,84.10
2022-10-08T23:42:28.281Z,84.08
2022-10-08T23:44:45.229Z,83.75
2022-10-08T23:47:02.134Z,84.20
2022-10-08T23:49:19.063Z,84.73
2022-10-08T23:51:35.925Z,84.75
2022-10-08T23:53:52.802Z,84.30
2022-10-08T23:56:09.710Z,84.41
2022-10-08T23:58:26.625Z,84.57
